sensor_id;sensor_type;location;lat;lon;timestamp;P1;durP1;ratioP1;P2;durP2;ratioP2
66384;SDS011;53426;55.872;37.462;2022-09-21T00:00:22;14.48;;;10.25;;
66384;SDS011;53426;55.872;37.462;2022-09-21T00:02:49;17.05;;;9.80;;
66384;SDS011;53426;55.872;37.462;2022-09-21T00:05:15;22.05;;;11.23;;
66384;SDS011;53426;55.872;37.462;2022-09-21T00:07:42;22.42;;;12.93;;
66384;SDS011;53426;55.872;37.462;2022-09-21T00:10:09;15.07;;;9.55;;
66384;SDS011;53426;55.872;37.462;2022-09-21T00:12:36;17.08;;;8.85;;
66384;SDS011;53426;55.872;37.462;2022-09-21T00:15:05;12.50;;;8.60;;
66384;SDS011;53426;55.872;37.462;2022-09-21T00:17:33;16.58;;;8.90;;
66384;SDS011;53426;55.872;37.462;2022-09-21T00:19:59;16.33;;;9.80;;
66384;SDS011;53426;55.872;37.462;2022-09-21T00:22:26;12.45;;;9.43;;
66384;SDS011;53426;55.872;37.462;2022-09-21T00:24:53;14.02;;;9.05;;
66384;SDS011;53426;55.872;37.462;2022-09-21T00:27:20;16.00;;;8.85;;
66384;SDS011;53426;55.872;37.462;2022-09-21T00:29:46;12.52;;;8.40;;
66384;SDS011;53426;55.872;37.462;2022-09-21T00:32:13;13.25;;;8.10;;
66384;SDS011;53426;55.872;37.462;2022-09-21T00:34:40;14.13;;;9.48;;
66384;SDS011;53426;55.872;37.462;2022-09-21T00:37:06;17.25;;;8.93;;
66384;SDS011;53426;55.872;37.462;2022-09-21T00:39:33;16.15;;;9.05;;
66384;SDS011;53426;55.872;37.462;2022-09-21T00:41:59;12.65;;;8.80;;
66384;SDS011;53426;55.872;37.462;2022-09-21T00:44:29;19.00;;;9.90;;
66384;SDS011;53426;55.872;37.462;2022-09-21T00:47:00;18.38;;;10.30;;
66384;SDS011;53426;55.872;37.462;2022-09-21T00:49:32;23.67;;;10.67;;
66384;SDS011;53426;55.872;37.462;2022-09-21T00:52:00;21.02;;;10.38;;
66384;SDS011;53426;55.872;37.462;2022-09-21T00:54:30;19.67;;;10.82;;
66384;SDS011;53426;55.872;37.462;2022-09-21T00:57:01;18.90;;;11.38;;
66384;SDS011;53426;55.872;37.462;2022-09-21T00:59:28;19.60;;;10.45;;
66384;SDS011;53426;55.872;37.462;2022-09-21T01:01:59;19.02;;;10.40;;
66384;SDS011;53426;55.872;37.462;2022-09-21T01:04:26;19.55;;;11.07;;
66384;SDS011;53426;55.872;37.462;2022-09-21T01:06:55;20.02;;;9.63;;
66384;SDS011;53426;55.872;37.462;2022-09-21T01:09:26;16.55;;;9.80;;
66384;SDS011;53426;55.872;37.462;2022-09-21T01:12:05;16.45;;;10.18;;
66384;SDS011;53426;55.872;37.462;2022-09-21T01:15:02;14.05;;;9.38;;
66384;SDS011;53426;55.872;37.462;2022-09-21T01:17:43;17.85;;;9.90;;
66384;SDS011;53426;55.872;37.462;2022-09-21T01:31:06;13.43;;;9.40;;
66384;SDS011;53426;55.872;37.462;2022-09-21T01:33:38;13.02;;;9.15;;
66384;SDS011;53426;55.872;37.462;2022-09-21T01:36:17;17.88;;;9.38;;
66384;SDS011;53426;55.872;37.462;2022-09-21T01:38:53;14.30;;;9.10;;
66384;SDS011;53426;55.872;37.462;2022-09-21T01:41:23;17.70;;;9.05;;
66384;SDS011;53426;55.872;37.462;2022-09-21T01:43:52;13.45;;;9.60;;
66384;SDS011;53426;55.872;37.462;2022-09-21T01:46:24;11.95;;;9.05;;
66384;SDS011;53426;55.872;37.462;2022-09-21T01:48:55;12.20;;;8.05;;
66384;SDS011;53426;55.872;37.462;2022-09-21T01:51:25;14.25;;;9.27;;
66384;SDS011;53426;55.872;37.462;2022-09-21T01:53:54;12.43;;;8.93;;
66384;SDS011;53426;55.872;37.462;2022-09-21T01:56:26;18.75;;;9.80;;
66384;SDS011;53426;55.872;37.462;2022-09-21T01:59:17;12.75;;;8.75;;
66384;SDS011;53426;55.872;37.462;2022-09-21T02:01:58;11.15;;;8.40;;
66384;SDS011;53426;55.872;37.462;2022-09-21T02:04:29;16.13;;;9.48;;
66384;SDS011;53426;55.872;37.462;2022-09-21T02:06:55;13.93;;;8.73;;
66384;SDS011;53426;55.872;37.462;2022-09-21T02:09:21;11.02;;;8.60;;
66384;SDS011;53426;55.872;37.462;2022-09-21T02:11:48;17.23;;;8.57;;
66384;SDS011;53426;55.872;37.462;2022-09-21T02:20:29;16.85;;;8.50;;
66384;SDS011;53426;55.872;37.462;2022-09-21T02:23:03;14.23;;;9.82;;
66384;SDS011;53426;55.872;37.462;2022-09-21T02:28:37;19.10;;;9.07;;
66384;SDS011;53426;55.872;37.462;2022-09-21T02:34:00;19.17;;;9.73;;
66384;SDS011;53426;55.872;37.462;2022-09-21T02:39:36;18.45;;;9.27;;
66384;SDS011;53426;55.872;37.462;2022-09-21T02:44:50;12.90;;;8.90;;
66384;SDS011;53426;55.872;37.462;2022-09-21T02:49:57;14.07;;;9.00;;
66384;SDS011;53426;55.872;37.462;2022-09-21T02:52:30;13.38;;;8.50;;
66384;SDS011;53426;55.872;37.462;2022-09-21T02:57:50;18.33;;;9.38;;
66384;SDS011;53426;55.872;37.462;2022-09-21T03:00:18;13.25;;;8.98;;
66384;SDS011;53426;55.872;37.462;2022-09-21T03:02:47;13.02;;;8.25;;
66384;SDS011;53426;55.872;37.462;2022-09-21T03:05:13;11.23;;;8.75;;
66384;SDS011;53426;55.872;37.462;2022-09-21T03:07:39;14.25;;;8.50;;
66384;SDS011;53426;55.872;37.462;2022-09-21T03:10:06;12.50;;;8.50;;
66384;SDS011;53426;55.872;37.462;2022-09-21T03:12:33;13.85;;;9.27;;
66384;SDS011;53426;55.872;37.462;2022-09-21T03:14:59;10.40;;;8.63;;
66384;SDS011;53426;55.872;37.462;2022-09-21T03:17:29;19.23;;;10.50;;
66384;SDS011;53426;55.872;37.462;2022-09-21T03:19:55;15.27;;;9.05;;
66384;SDS011;53426;55.872;37.462;2022-09-21T03:22:21;13.23;;;9.32;;
66384;SDS011;53426;55.872;37.462;2022-09-21T03:24:47;14.90;;;9.20;;
66384;SDS011;53426;55.872;37.462;2022-09-21T03:27:13;16.95;;;9.35;;
66384;SDS011;53426;55.872;37.462;2022-09-21T03:29:41;21.90;;;10.27;;
66384;SDS011;53426;55.872;37.462;2022-09-21T03:32:07;15.98;;;10.63;;
66384;SDS011;53426;55.872;37.462;2022-09-21T03:37:28;13.90;;;9.90;;
66384;SDS011;53426;55.872;37.462;2022-09-21T03:39:55;18.10;;;8.73;;
66384;SDS011;53426;55.872;37.462;2022-09-21T03:42:20;16.60;;;9.68;;
66384;SDS011;53426;55.872;37.462;2022-09-21T03:44:46;16.95;;;8.90;;
66384;SDS011;53426;55.872;37.462;2022-09-21T03:47:13;16.52;;;9.20;;
66384;SDS011;53426;55.872;37.462;2022-09-21T03:49:39;17.27;;;9.30;;
66384;SDS011;53426;55.872;37.462;2022-09-21T03:52:04;15.50;;;10.48;;
66384;SDS011;53426;55.872;37.462;2022-09-21T03:54:30;16.67;;;10.50;;
66384;SDS011;53426;55.872;37.462;2022-09-21T03:56:56;17.23;;;10.07;;
66384;SDS011;53426;55.872;37.462;2022-09-21T03:59:21;19.98;;;11.10;;
66384;SDS011;53426;55.872;37.462;2022-09-21T04:01:47;21.02;;;11.07;;
66384;SDS011;53426;55.872;37.462;2022-09-21T04:04:13;23.30;;;12.00;;
66384;SDS011;53426;55.872;37.462;2022-09-21T04:06:41;15.70;;;11.35;;
66384;SDS011;53426;55.872;37.462;2022-09-21T04:09:07;17.15;;;10.98;;
66384;SDS011;53426;55.872;37.462;2022-09-21T04:11:33;23.55;;;11.18;;
66384;SDS011;53426;55.872;37.462;2022-09-21T04:13:58;20.42;;;11.90;;
66384;SDS011;53426;55.872;37.462;2022-09-21T04:21:55;17.02;;;10.50;;
66384;SDS011;53426;55.872;37.462;2022-09-21T04:30:06;18.58;;;9.63;;
66384;SDS011;53426;55.872;37.462;2022-09-21T04:32:32;15.07;;;10.55;;
66384;SDS011;53426;55.872;37.462;2022-09-21T04:34:58;15.65;;;10.38;;
66384;SDS011;53426;55.872;37.462;2022-09-21T04:37:24;16.63;;;11.40;;
66384;SDS011;53426;55.872;37.462;2022-09-21T04:39:59;21.98;;;10.52;;
66384;SDS011;53426;55.872;37.462;2022-09-21T04:42:28;13.82;;;10.32;;
66384;SDS011;53426;55.872;37.462;2022-09-21T04:44:55;17.52;;;10.88;;
66384;SDS011;53426;55.872;37.462;2022-09-21T04:47:21;19.30;;;11.02;;
66384;SDS011;53426;55.872;37.462;2022-09-21T04:49:50;17.92;;;11.68;;
66384;SDS011;53426;55.872;37.462;2022-09-21T04:52:17;22.40;;;11.07;;
66384;SDS011;53426;55.872;37.462;2022-09-21T04:54:43;21.98;;;10.30;;
66384;SDS011;53426;55.872;37.462;2022-09-21T04:57:10;22.02;;;11.40;;
66384;SDS011;53426;55.872;37.462;2022-09-21T04:59:35;21.85;;;12.30;;
66384;SDS011;53426;55.872;37.462;2022-09-21T05:05:06;19.27;;;10.68;;
66384;SDS011;53426;55.872;37.462;2022-09-21T05:07:32;26.23;;;10.63;;
66384;SDS011;53426;55.872;37.462;2022-09-21T05:19:12;16.17;;;10.77;;
66384;SDS011;53426;55.872;37.462;2022-09-21T05:21:37;15.68;;;10.10;;
66384;SDS011;53426;55.872;37.462;2022-09-21T05:24:03;14.05;;;10.23;;
66384;SDS011;53426;55.872;37.462;2022-09-21T05:26:29;16.40;;;10.10;;
66384;SDS011;53426;55.872;37.462;2022-09-21T05:28:55;14.10;;;9.95;;
66384;SDS011;53426;55.872;37.462;2022-09-21T06:03:25;17.88;;;9.68;;
66384;SDS011;53426;55.872;37.462;2022-09-21T06:05:54;20.80;;;10.00;;
66384;SDS011;53426;55.872;37.462;2022-09-21T06:08:20;18.45;;;10.18;;
66384;SDS011;53426;55.872;37.462;2022-09-21T06:10:51;20.63;;;10.50;;
66384;SDS011;53426;55.872;37.462;2022-09-21T06:13:17;26.25;;;10.30;;
66384;SDS011;53426;55.872;37.462;2022-09-21T06:15:44;22.88;;;11.27;;
66384;SDS011;53426;55.872;37.462;2022-09-21T06:18:11;19.23;;;9.60;;
66384;SDS011;53426;55.872;37.462;2022-09-21T06:20:40;24.05;;;8.93;;
66384;SDS011;53426;55.872;37.462;2022-09-21T06:34:12;13.88;;;8.88;;
66384;SDS011;53426;55.872;37.462;2022-09-21T06:36:38;22.20;;;10.02;;
66384;SDS011;53426;55.872;37.462;2022-09-21T06:39:03;23.35;;;9.02;;
66384;SDS011;53426;55.872;37.462;2022-09-21T06:41:29;13.77;;;9.02;;
66384;SDS011;53426;55.872;37.462;2022-09-21T06:43:56;17.88;;;8.55;;
66384;SDS011;53426;55.872;37.462;2022-09-21T06:46:22;14.15;;;8.02;;
66384;SDS011;53426;55.872;37.462;2022-09-21T06:48:48;9.45;;;7.03;;
66384;SDS011;53426;55.872;37.462;2022-09-21T06:51:15;11.30;;;6.85;;
66384;SDS011;53426;55.872;37.462;2022-09-21T06:53:40;22.75;;;7.55;;
66384;SDS011;53426;55.872;37.462;2022-09-21T06:56:07;7.93;;;6.25;;
66384;SDS011;53426;55.872;37.462;2022-09-21T06:58:34;9.60;;;7.30;;
66384;SDS011;53426;55.872;37.462;2022-09-21T07:07:08;8.20;;;6.30;;
66384;SDS011;53426;55.872;37.462;2022-09-21T07:09:34;7.72;;;6.00;;
66384;SDS011;53426;55.872;37.462;2022-09-21T07:12:00;8.10;;;6.00;;
66384;SDS011;53426;55.872;37.462;2022-09-21T07:14:26;6.43;;;5.80;;
66384;SDS011;53426;55.872;37.462;2022-09-21T07:16:51;9.65;;;6.40;;
66384;SDS011;53426;55.872;37.462;2022-09-21T07:19:17;7.88;;;6.05;;
66384;SDS011;53426;55.872;37.462;2022-09-21T07:21:43;7.03;;;5.85;;
66384;SDS011;53426;55.872;37.462;2022-09-21T07:24:10;6.43;;;5.07;;
66384;SDS011;53426;55.872;37.462;2022-09-21T07:26:36;7.82;;;6.13;;
66384;SDS011;53426;55.872;37.462;2022-09-21T07:29:02;13.52;;;5.43;;
66384;SDS011;53426;55.872;37.462;2022-09-21T07:31:28;7.03;;;5.60;;
66384;SDS011;53426;55.872;37.462;2022-09-21T07:33:57;8.73;;;5.75;;
66384;SDS011;53426;55.872;37.462;2022-09-21T07:36:23;6.30;;;5.80;;
66384;SDS011;53426;55.872;37.462;2022-09-21T07:43:09;11.85;;;5.80;;
66384;SDS011;53426;55.872;37.462;2022-09-21T07:45:35;8.13;;;6.00;;
66384;SDS011;53426;55.872;37.462;2022-09-21T07:48:04;6.88;;;5.70;;
66384;SDS011;53426;55.872;37.462;2022-09-21T07:50:35;9.15;;;6.47;;
66384;SDS011;53426;55.872;37.462;2022-09-21T07:53:01;7.82;;;6.15;;
66384;SDS011;53426;55.872;37.462;2022-09-21T07:58:23;11.35;;;6.10;;
66384;SDS011;53426;55.872;37.462;2022-09-21T08:01:07;12.20;;;5.65;;
66384;SDS011;53426;55.872;37.462;2022-09-21T08:03:33;9.82;;;6.32;;
66384;SDS011;53426;55.872;37.462;2022-09-21T08:05:58;8.23;;;5.78;;
66384;SDS011;53426;55.872;37.462;2022-09-21T08:08:24;10.75;;;5.78;;
66384;SDS011;53426;55.872;37.462;2022-09-21T08:14:33;9.18;;;5.90;;
66384;SDS011;53426;55.872;37.462;2022-09-21T08:17:00;8.68;;;5.47;;
66384;SDS011;53426;55.872;37.462;2022-09-21T08:19:26;9.10;;;4.70;;
66384;SDS011;53426;55.872;37.462;2022-09-21T08:21:52;7.22;;;5.75;;
66384;SDS011;53426;55.872;37.462;2022-09-21T08:24:18;6.15;;;5.40;;
66384;SDS011;53426;55.872;37.462;2022-09-21T08:26:45;14.90;;;5.32;;
66384;SDS011;53426;55.872;37.462;2022-09-21T08:29:11;7.28;;;5.22;;
66384;SDS011;53426;55.872;37.462;2022-09-21T08:31:38;7.13;;;5.10;;
66384;SDS011;53426;55.872;37.462;2022-09-21T08:34:04;6.65;;;4.20;;
66384;SDS011;53426;55.872;37.462;2022-09-21T08:36:30;11.70;;;4.85;;
66384;SDS011;53426;55.872;37.462;2022-09-21T08:38:56;6.35;;;4.32;;
66384;SDS011;53426;55.872;37.462;2022-09-21T08:43:54;6.28;;;4.20;;
66384;SDS011;53426;55.872;37.462;2022-09-21T08:46:26;5.97;;;4.03;;
66384;SDS011;53426;55.872;37.462;2022-09-21T08:51:26;7.90;;;4.72;;
66384;SDS011;53426;55.872;37.462;2022-09-21T08:54:02;7.30;;;4.60;;
66384;SDS011;53426;55.872;37.462;2022-09-21T08:56:36;8.45;;;4.88;;
66384;SDS011;53426;55.872;37.462;2022-09-21T08:59:02;6.22;;;4.60;;
66384;SDS011;53426;55.872;37.462;2022-09-21T09:21:24;6.07;;;4.68;;
66384;SDS011;53426;55.872;37.462;2022-09-21T09:24:03;7.15;;;5.10;;
66384;SDS011;53426;55.872;37.462;2022-09-21T09:38:13;8.50;;;4.68;;
66384;SDS011;53426;55.872;37.462;2022-09-21T09:41:00;11.05;;;5.13;;
66384;SDS011;53426;55.872;37.462;2022-09-21T09:50:31;6.45;;;4.80;;
66384;SDS011;53426;55.872;37.462;2022-09-21T09:53:04;7.75;;;5.20;;
66384;SDS011;53426;55.872;37.462;2022-09-21T09:55:38;6.72;;;5.05;;
66384;SDS011;53426;55.872;37.462;2022-09-21T09:58:18;8.93;;;5.22;;
66384;SDS011;53426;55.872;37.462;2022-09-21T10:00:47;5.60;;;5.07;;
66384;SDS011;53426;55.872;37.462;2022-09-21T10:03:24;7.80;;;4.70;;
66384;SDS011;53426;55.872;37.462;2022-09-21T10:05:52;7.75;;;4.95;;
66384;SDS011;53426;55.872;37.462;2022-09-21T10:11:14;4.13;;;3.70;;
66384;SDS011;53426;55.872;37.462;2022-09-21T10:13:41;4.10;;;3.70;;
66384;SDS011;53426;55.872;37.462;2022-09-21T10:18:49;6.13;;;4.05;;
66384;SDS011;53426;55.872;37.462;2022-09-21T10:21:25;4.03;;;3.47;;
66384;SDS011;53426;55.872;37.462;2022-09-21T10:24:22;6.38;;;3.88;;
66384;SDS011;53426;55.872;37.462;2022-09-21T10:27:14;4.50;;;3.05;;
66384;SDS011;53426;55.872;37.462;2022-09-21T10:29:43;5.28;;;3.30;;
66384;SDS011;53426;55.872;37.462;2022-09-21T10:32:25;2.90;;;2.70;;
66384;SDS011;53426;55.872;37.462;2022-09-21T10:36:02;3.10;;;2.80;;
66384;SDS011;53426;55.872;37.462;2022-09-21T10:39:14;3.10;;;2.90;;
66384;SDS011;53426;55.872;37.462;2022-09-21T10:42:19;4.65;;;3.05;;
66384;SDS011;53426;55.872;37.462;2022-09-21T10:45:52;7.07;;;2.45;;
66384;SDS011;53426;55.872;37.462;2022-09-21T10:49:29;4.13;;;2.42;;
66384;SDS011;53426;55.872;37.462;2022-09-21T10:55:42;2.33;;;1.90;;
66384;SDS011;53426;55.872;37.462;2022-09-21T11:06:41;2.20;;;1.65;;
66384;SDS011;53426;55.872;37.462;2022-09-21T11:13:52;3.17;;;1.80;;
66384;SDS011;53426;55.872;37.462;2022-09-21T11:16:30;3.65;;;1.80;;
66384;SDS011;53426;55.872;37.462;2022-09-21T11:19:17;2.60;;;1.77;;
66384;SDS011;53426;55.872;37.462;2022-09-21T11:21:59;2.33;;;2.10;;
66384;SDS011;53426;55.872;37.462;2022-09-21T11:27:34;4.03;;;2.00;;
66384;SDS011;53426;55.872;37.462;2022-09-21T11:30:15;2.53;;;2.00;;
66384;SDS011;53426;55.872;37.462;2022-09-21T11:36:37;7.75;;;1.90;;
66384;SDS011;53426;55.872;37.462;2022-09-21T11:39:31;2.17;;;2.05;;
66384;SDS011;53426;55.872;37.462;2022-09-21T11:42:22;2.35;;;2.15;;
66384;SDS011;53426;55.872;37.462;2022-09-21T11:45:20;2.42;;;2.22;;
66384;SDS011;53426;55.872;37.462;2022-09-21T12:02:19;4.70;;;2.35;;
66384;SDS011;53426;55.872;37.462;2022-09-21T12:10:55;3.47;;;2.60;;
66384;SDS011;53426;55.872;37.462;2022-09-21T12:14:28;4.00;;;2.70;;
66384;SDS011;53426;55.872;37.462;2022-09-21T12:22:20;1.80;;;1.70;;
66384;SDS011;53426;55.872;37.462;2022-09-21T12:24:58;2.63;;;1.92;;
66384;SDS011;53426;55.872;37.462;2022-09-21T12:30:20;2.50;;;2.30;;
66384;SDS011;53426;55.872;37.462;2022-09-21T12:38:26;5.35;;;2.30;;
66384;SDS011;53426;55.872;37.462;2022-09-21T12:43:48;2.72;;;2.22;;
66384;SDS011;53426;55.872;37.462;2022-09-21T12:46:54;2.60;;;2.25;;
66384;SDS011;53426;55.872;37.462;2022-09-21T12:49:35;14.68;;;2.53;;
66384;SDS011;53426;55.872;37.462;2022-09-21T12:52:06;5.75;;;2.25;;
66384;SDS011;53426;55.872;37.462;2022-09-21T12:54:41;2.95;;;2.17;;
66384;SDS011;53426;55.872;37.462;2022-09-21T13:00:15;3.03;;;2.20;;
66384;SDS011;53426;55.872;37.462;2022-09-21T13:02:47;2.70;;;2.50;;
66384;SDS011;53426;55.872;37.462;2022-09-21T13:11:12;10.05;;;2.95;;
66384;SDS011;53426;55.872;37.462;2022-09-21T13:13:50;6.32;;;2.67;;
66384;SDS011;53426;55.872;37.462;2022-09-21T13:16:33;3.17;;;2.50;;
66384;SDS011;53426;55.872;37.462;2022-09-21T13:19:17;9.50;;;2.40;;
66384;SDS011;53426;55.872;37.462;2022-09-21T13:21:50;5.05;;;2.35;;
66384;SDS011;53426;55.872;37.462;2022-09-21T13:25:02;5.65;;;2.83;;
66384;SDS011;53426;55.872;37.462;2022-09-21T13:30:42;9.63;;;3.17;;
66384;SDS011;53426;55.872;37.462;2022-09-21T13:36:02;6.88;;;2.38;;
66384;SDS011;53426;55.872;37.462;2022-09-21T13:49:01;7.28;;;2.97;;
66384;SDS011;53426;55.872;37.462;2022-09-21T13:54:30;3.60;;;3.00;;
66384;SDS011;53426;55.872;37.462;2022-09-21T13:59:44;5.53;;;2.78;;
66384;SDS011;53426;55.872;37.462;2022-09-21T14:02:24;4.65;;;2.22;;
66384;SDS011;53426;55.872;37.462;2022-09-21T14:05:05;4.82;;;2.38;;
66384;SDS011;53426;55.872;37.462;2022-09-21T14:07:55;5.93;;;2.70;;
66384;SDS011;53426;55.872;37.462;2022-09-21T14:10:24;2.95;;;2.75;;
66384;SDS011;53426;55.872;37.462;2022-09-21T14:12:51;2.72;;;2.47;;
66384;SDS011;53426;55.872;37.462;2022-09-21T14:23:37;8.82;;;3.13;;
66384;SDS011;53426;55.872;37.462;2022-09-21T14:29:20;6.35;;;3.17;;
66384;SDS011;53426;55.872;37.462;2022-09-21T14:32:22;5.88;;;3.13;;
66384;SDS011;53426;55.872;37.462;2022-09-21T14:37:45;3.67;;;3.15;;
66384;SDS011;53426;55.872;37.462;2022-09-21T14:49:58;6.95;;;4.35;;
66384;SDS011;53426;55.872;37.462;2022-09-21T15:01:14;4.55;;;3.50;;
66384;SDS011;53426;55.872;37.462;2022-09-21T15:10:19;5.05;;;3.25;;
66384;SDS011;53426;55.872;37.462;2022-09-21T15:16:31;5.47;;;3.50;;
66384;SDS011;53426;55.872;37.462;2022-09-21T15:19:10;4.63;;;3.03;;
66384;SDS011;53426;55.872;37.462;2022-09-21T15:21:52;7.00;;;3.60;;
66384;SDS011;53426;55.872;37.462;2022-09-21T15:24:34;4.13;;;3.35;;
66384;SDS011;53426;55.872;37.462;2022-09-21T15:27:05;3.63;;;2.65;;
66384;SDS011;53426;55.872;37.462;2022-09-21T15:29:34;7.40;;;3.50;;
66384;SDS011;53426;55.872;37.462;2022-09-21T15:32:01;3.55;;;3.05;;
66384;SDS011;53426;55.872;37.462;2022-09-21T15:34:29;3.55;;;2.90;;
66384;SDS011;53426;55.872;37.462;2022-09-21T15:40:04;8.55;;;3.13;;
66384;SDS011;53426;55.872;37.462;2022-09-21T15:42:33;3.80;;;3.00;;
66384;SDS011;53426;55.872;37.462;2022-09-21T15:45:15;7.68;;;2.60;;
66384;SDS011;53426;55.872;37.462;2022-09-21T15:47:42;6.53;;;3.00;;
66384;SDS011;53426;55.872;37.462;2022-09-21T15:50:15;4.65;;;2.58;;
66384;SDS011;53426;55.872;37.462;2022-09-21T15:52:57;4.80;;;3.40;;
66384;SDS011;53426;55.872;37.462;2022-09-21T15:55:34;3.10;;;2.67;;
66384;SDS011;53426;55.872;37.462;2022-09-21T15:58:00;13.68;;;3.72;;
66384;SDS011;53426;55.872;37.462;2022-09-21T16:00:31;3.20;;;2.83;;
66384;SDS011;53426;55.872;37.462;2022-09-21T16:03:04;6.55;;;2.80;;
66384;SDS011;53426;55.872;37.462;2022-09-21T16:05:49;4.53;;;3.47;;
66384;SDS011;53426;55.872;37.462;2022-09-21T16:08:20;5.97;;;3.80;;
66384;SDS011;53426;55.872;37.462;2022-09-21T16:11:11;4.80;;;3.20;;
66384;SDS011;53426;55.872;37.462;2022-09-21T16:13:44;10.82;;;3.50;;
66384;SDS011;53426;55.872;37.462;2022-09-21T16:16:32;6.90;;;3.58;;
66384;SDS011;53426;55.872;37.462;2022-09-21T16:19:17;6.32;;;3.78;;
66384;SDS011;53426;55.872;37.462;2022-09-21T16:21:44;6.82;;;4.00;;
66384;SDS011;53426;55.872;37.462;2022-09-21T16:24:17;4.05;;;3.70;;
66384;SDS011;53426;55.872;37.462;2022-09-21T16:26:57;7.20;;;3.97;;
66384;SDS011;53426;55.872;37.462;2022-09-21T16:29:26;4.82;;;3.72;;
66384;SDS011;53426;55.872;37.462;2022-09-21T16:34:48;6.93;;;4.30;;
66384;SDS011;53426;55.872;37.462;2022-09-21T16:39:47;6.15;;;4.57;;
66384;SDS011;53426;55.872;37.462;2022-09-21T16:42:13;4.70;;;4.20;;
66384;SDS011;53426;55.872;37.462;2022-09-21T16:44:40;8.55;;;4.88;;
66384;SDS011;53426;55.872;37.462;2022-09-21T16:47:29;5.60;;;4.60;;
66384;SDS011;53426;55.872;37.462;2022-09-21T16:52:27;12.43;;;7.70;;
66384;SDS011;53426;55.872;37.462;2022-09-21T16:54:58;10.52;;;4.15;;
66384;SDS011;53426;55.872;37.462;2022-09-21T16:57:24;15.88;;;5.82;;
66384;SDS011;53426;55.872;37.462;2022-09-21T16:59:51;5.90;;;4.07;;
66384;SDS011;53426;55.872;37.462;2022-09-21T17:02:17;4.32;;;3.92;;
66384;SDS011;53426;55.872;37.462;2022-09-21T17:04:43;5.47;;;4.00;;
66384;SDS011;53426;55.872;37.462;2022-09-21T17:07:10;5.07;;;3.85;;
66384;SDS011;53426;55.872;37.462;2022-09-21T17:09:39;7.43;;;4.90;;
66384;SDS011;53426;55.872;37.462;2022-09-21T17:12:15;4.45;;;4.07;;
66384;SDS011;53426;55.872;37.462;2022-09-21T17:14:42;8.05;;;4.53;;
66384;SDS011;53426;55.872;37.462;2022-09-21T17:17:16;5.18;;;4.28;;
66384;SDS011;53426;55.872;37.462;2022-09-21T17:19:45;7.82;;;5.22;;
66384;SDS011;53426;55.872;37.462;2022-09-21T17:22:14;6.82;;;4.63;;
66384;SDS011;53426;55.872;37.462;2022-09-21T17:24:49;7.03;;;4.45;;
66384;SDS011;53426;55.872;37.462;2022-09-21T17:27:16;8.15;;;4.72;;
66384;SDS011;53426;55.872;37.462;2022-09-21T17:29:44;6.32;;;4.80;;
66384;SDS011;53426;55.872;37.462;2022-09-21T17:32:15;10.77;;;4.82;;
66384;SDS011;53426;55.872;37.462;2022-09-21T17:34:44;4.80;;;4.40;;
66384;SDS011;53426;55.872;37.462;2022-09-21T17:37:12;6.25;;;4.45;;
66384;SDS011;53426;55.872;37.462;2022-09-21T17:39:38;6.15;;;4.88;;
66384;SDS011;53426;55.872;37.462;2022-09-21T17:42:18;7.65;;;4.68;;
66384;SDS011;53426;55.872;37.462;2022-09-21T17:47:49;10.02;;;5.15;;
66384;SDS011;53426;55.872;37.462;2022-09-21T17:50:20;6.03;;;4.65;;
66384;SDS011;53426;55.872;37.462;2022-09-21T17:59:01;5.35;;;3.55;;
66384;SDS011;53426;55.872;37.462;2022-09-21T18:04:05;3.85;;;3.53;;
66384;SDS011;53426;55.872;37.462;2022-09-21T18:06:35;8.35;;;3.20;;
66384;SDS011;53426;55.872;37.462;2022-09-21T18:09:02;4.50;;;3.30;;
66384;SDS011;53426;55.872;37.462;2022-09-21T18:11:45;3.58;;;2.90;;
66384;SDS011;53426;55.872;37.462;2022-09-21T18:14:50;2.65;;;2.45;;
66384;SDS011;53426;55.872;37.462;2022-09-21T18:17:31;2.80;;;2.60;;
66384;SDS011;53426;55.872;37.462;2022-09-21T18:22:54;3.28;;;2.63;;
66384;SDS011;53426;55.872;37.462;2022-09-21T18:25:56;3.27;;;3.07;;
66384;SDS011;53426;55.872;37.462;2022-09-21T18:31:02;8.73;;;3.65;;
66384;SDS011;53426;55.872;37.462;2022-09-21T18:33:45;5.47;;;3.85;;
66384;SDS011;53426;55.872;37.462;2022-09-21T18:45:17;8.18;;;5.00;;
66384;SDS011;53426;55.872;37.462;2022-09-21T18:50:36;5.93;;;5.32;;
66384;SDS011;53426;55.872;37.462;2022-09-21T18:55:58;8.30;;;6.25;;
66384;SDS011;53426;55.872;37.462;2022-09-21T18:58:25;8.43;;;5.47;;
66384;SDS011;53426;55.872;37.462;2022-09-21T19:00:51;9.45;;;5.88;;
66384;SDS011;53426;55.872;37.462;2022-09-21T19:03:17;7.28;;;5.80;;
66384;SDS011;53426;55.872;37.462;2022-09-21T19:05:50;6.32;;;5.63;;
66384;SDS011;53426;55.872;37.462;2022-09-21T19:16:50;7.15;;;5.45;;
66384;SDS011;53426;55.872;37.462;2022-09-21T19:24:48;8.90;;;5.15;;
66384;SDS011;53426;55.872;37.462;2022-09-21T19:30:23;8.43;;;6.35;;
66384;SDS011;53426;55.872;37.462;2022-09-21T19:32:50;7.43;;;5.50;;
66384;SDS011;53426;55.872;37.462;2022-09-21T19:37:44;10.95;;;6.07;;
66384;SDS011;53426;55.872;37.462;2022-09-21T19:40:12;7.82;;;5.50;;
66384;SDS011;53426;55.872;37.462;2022-09-21T19:45:27;8.75;;;5.38;;
66384;SDS011;53426;55.872;37.462;2022-09-21T19:47:57;5.95;;;5.35;;
66384;SDS011;53426;55.872;37.462;2022-09-21T19:50:52;9.43;;;5.28;;
66384;SDS011;53426;55.872;37.462;2022-09-21T19:53:20;9.50;;;6.40;;
66384;SDS011;53426;55.872;37.462;2022-09-21T19:58:55;7.55;;;5.88;;
66384;SDS011;53426;55.872;37.462;2022-09-21T20:01:41;8.63;;;5.70;;
66384;SDS011;53426;55.872;37.462;2022-09-21T20:04:18;11.80;;;5.70;;
66384;SDS011;53426;55.872;37.462;2022-09-21T20:06:54;7.80;;;5.82;;
66384;SDS011;53426;55.872;37.462;2022-09-21T20:09:28;5.82;;;5.13;;
66384;SDS011;53426;55.872;37.462;2022-09-21T20:14:45;7.97;;;5.28;;
66384;SDS011;53426;55.872;37.462;2022-09-21T20:17:22;8.05;;;5.05;;
66384;SDS011;53426;55.872;37.462;2022-09-21T20:20:02;5.95;;;4.95;;
66384;SDS011;53426;55.872;37.462;2022-09-21T20:22:38;8.55;;;4.68;;
66384;SDS011;53426;55.872;37.462;2022-09-21T20:27:39;5.18;;;4.78;;
66384;SDS011;53426;55.872;37.462;2022-09-21T20:30:10;5.20;;;4.70;;
66384;SDS011;53426;55.872;37.462;2022-09-21T20:32:39;6.53;;;4.70;;
66384;SDS011;53426;55.872;37.462;2022-09-21T20:35:16;8.90;;;4.90;;
66384;SDS011;53426;55.872;37.462;2022-09-21T20:37:49;6.10;;;4.85;;
66384;SDS011;53426;55.872;37.462;2022-09-21T20:40:16;6.20;;;5.38;;
66384;SDS011;53426;55.872;37.462;2022-09-21T20:42:42;5.85;;;4.90;;
66384;SDS011;53426;55.872;37.462;2022-09-21T20:45:09;5.53;;;4.95;;
66384;SDS011;53426;55.872;37.462;2022-09-21T20:47:36;5.32;;;4.78;;
66384;SDS011;53426;55.872;37.462;2022-09-21T20:50:03;6.43;;;4.85;;
66384;SDS011;53426;55.872;37.462;2022-09-21T20:52:29;9.43;;;4.88;;
66384;SDS011;53426;55.872;37.462;2022-09-21T20:54:55;7.63;;;5.05;;
66384;SDS011;53426;55.872;37.462;2022-09-21T20:57:21;6.07;;;4.60;;
66384;SDS011;53426;55.872;37.462;2022-09-21T20:59:47;6.68;;;5.13;;
66384;SDS011;53426;55.872;37.462;2022-09-21T21:02:14;5.53;;;4.93;;
66384;SDS011;53426;55.872;37.462;2022-09-21T21:04:41;7.55;;;5.65;;
66384;SDS011;53426;55.872;37.462;2022-09-21T21:07:06;6.22;;;5.20;;
66384;SDS011;53426;55.872;37.462;2022-09-21T21:09:32;9.25;;;4.93;;
66384;SDS011;53426;55.872;37.462;2022-09-21T21:11:58;6.35;;;5.63;;
66384;SDS011;53426;55.872;37.462;2022-09-21T21:14:24;6.15;;;5.28;;